sensor_id;sensor_type;location;lat;lon;timestamp;pressure;altitude;pressure_sealevel;temperature;humidity
44996;BME280;30729;49.486;10.792;2024-02-28T17:18:03;98136.16;;;5.16;100.00
44996;BME280;30729;49.486;10.792;2024-02-28T17:20:28;98139.13;;;5.29;100.00
44996;BME280;30729;49.486;10.792;2024-02-28T17:22:54;98134.75;;;5.32;100.00
44996;BME280;30729;49.486;10.792;2024-02-28T17:25:19;98138.69;;;5.30;100.00
44996;BME280;30729;49.486;10.792;2024-02-28T17:27:44;98147.50;;;5.22;100.00
44996;BME280;30729;49.486;10.792;2024-02-28T17:30:10;98143.56;;;5.23;100.00
44996;BME280;30729;49.486;10.792;2024-02-28T17:32:35;98151.78;;;5.26;100.00
44996;BME280;30729;49.486;10.792;2024-02-28T17:35:00;98148.97;;;5.30;100.00
44996;BME280;30729;49.486;10.792;2024-02-28T17:37:30;98157.72;;;5.25;100.00
44996;BME280;30729;49.486;10.792;2024-02-28T17:39:56;98155.53;;;5.13;100.00
44996;BME280;30729;49.486;10.792;2024-02-28T17:42:21;98147.72;;;5.08;100.00
44996;BME280;30729;49.486;10.792;2024-02-28T17:44:46;98155.53;;;5.13;100.00
44996;BME280;30729;49.486;10.792;2024-02-28T17:47:12;98159.22;;;5.06;100.00
44996;BME280;30729;49.486;10.792;2024-02-28T17:49:38;98152.19;;;5.01;100.00
44996;BME280;30729;49.486;10.792;2024-02-28T17:52:04;98156.91;;;5.01;100.00
44996;BME280;30729;49.486;10.792;2024-02-28T17:54:31;98162.09;;;4.95;100.00
44996;BME280;30729;49.486;10.792;2024-02-28T17:56:56;98166.50;;;4.93;100.00
44996;BME280;30729;49.486;10.792;2024-02-28T17:59:22;98171.69;;;4.87;100.00
44996;BME280;30729;49.486;10.792;2024-02-28T18:01:47;98161.44;;;4.88;100.00
44996;BME280;30729;49.486;10.792;2024-02-28T18:04:12;98165.84;;;4.82;100.00
44996;BME280;30729;49.486;10.792;2024-02-28T18:06:37;98175.81;;;4.75;100.00
44996;BME280;30729;49.486;10.792;2024-02-28T18:09:03;98169.59;;;4.68;100.00
44996;BME280;30729;49.486;10.792;2024-02-28T18:11:29;98170.31;;;4.72;100.00
44996;BME280;30729;49.486;10.792;2024-02-28T18:13:56;98171.88;;;4.73;100.00
44996;BME280;30729;49.486;10.792;2024-02-28T18:16:21;98177.31;;;4.80;100.00
44996;BME280;30729;49.486;10.792;2024-02-28T18:18:47;98171.84;;;4.76;100.00
44996;BME280;30729;49.486;10.792;2024-02-28T18:21:12;98170.78;;;4.67;100.00
44996;BME280;30729;49.486;10.792;2024-02-28T18:23:37;98177.44;;;4.69;100.00
44996;BME280;30729;49.486;10.792;2024-02-28T18:26:03;98173.56;;;4.67;100.00
44996;BME280;30729;49.486;10.792;2024-02-28T18:28:28;98170.31;;;4.72;100.00
44996;BME280;30729;49.486;10.792;2024-02-28T18:30:53;98176.78;;;4.62;100.00
44996;BME280;30729;49.486;10.792;2024-02-28T18:33:19;98166.56;;;4.59;100.00
44996;BME280;30729;49.486;10.792;2024-02-28T18:35:44;98164.56;;;4.59;100.00
44996;BME280;30729;49.486;10.792;2024-02-28T18:38:10;98169.31;;;4.59;100.00
44996;BME280;30729;49.486;10.792;2024-02-28T18:40:35;98169.81;;;4.50;100.00
44996;BME280;30729;49.486;10.792;2024-02-28T18:43:01;98172.94;;;4.52;100.00
44996;BME280;30729;49.486;10.792;2024-02-28T18:45:27;98174.91;;;4.51;100.00
44996;BME280;30729;49.486;10.792;2024-02-28T18:47:53;98169.13;;;4.42;100.00
44996;BME280;30729;49.486;10.792;2024-02-28T18:50:18;98173.88;;;4.38;100.00
44996;BME280;30729;49.486;10.792;2024-02-28T18:52:48;98173.97;;;4.35;100.00
44996;BME280;30729;49.486;10.792;2024-02-28T18:55:14;98176.31;;;4.33;100.00
44996;BME280;30729;49.486;10.792;2024-02-28T18:57:39;98173.25;;;4.27;100.00
44996;BME280;30729;49.486;10.792;2024-02-28T19:00:05;98173.72;;;4.22;100.00
44996;BME280;30729;49.486;10.792;2024-02-28T19:02:31;98170.66;;;4.13;100.00
44996;BME280;30729;49.486;10.792;2024-02-28T19:04:58;98162.38;;;4.13;100.00
44996;BME280;30729;49.486;10.792;2024-02-28T19:07:23;98161.25;;;4.07;100.00
44996;BME280;30729;49.486;10.792;2024-02-28T19:09:49;98163.97;;;4.10;100.00
44996;BME280;30729;49.486;10.792;2024-02-28T19:12:14;98165.56;;;4.08;100.00
44996;BME280;30729;49.486;10.792;2024-02-28T19:14:39;98169.91;;;4.09;100.00
44996;BME280;30729;49.486;10.792;2024-02-28T19:17:05;98164.75;;;4.11;100.00
44996;BME280;30729;49.486;10.792;2024-02-28T19:19:30;98165.06;;;4.16;100.00
44996;BME280;30729;49.486;10.792;2024-02-28T19:21:58;98163.84;;;4.21;100.00
44996;BME280;30729;49.486;10.792;2024-02-28T19:24:24;98171.81;;;4.12;100.00
44996;BME280;30729;49.486;10.792;2024-02-28T19:26:50;98165.47;;;4.18;100.00
44996;BME280;30729;49.486;10.792;2024-02-28T19:29:15;98160.91;;;4.04;100.00
44996;BME280;30729;49.486;10.792;2024-02-28T19:31:40;98171.09;;;4.08;100.00
44996;BME280;30729;49.486;10.792;2024-02-28T19:34:05;98166.44;;;4.01;100.00
44996;BME280;30729;49.486;10.792;2024-02-28T19:36:31;98169.97;;;4.01;100.00
44996;BME280;30729;49.486;10.792;2024-02-28T19:38:56;98172.34;;;3.99;100.00
44996;BME280;30729;49.486;10.792;2024-02-28T19:41:26;98173.69;;;3.84;100.00
44996;BME280;30729;49.486;10.792;2024-02-28T19:43:52;98173.72;;;3.81;100.00
44996;BME280;30729;49.486;10.792;2024-02-28T19:46:17;98173.34;;;3.78;100.00
44996;BME280;30729;49.486;10.792;2024-02-28T19:48:42;98163.50;;;3.77;100.00
44996;BME280;30729;49.486;10.792;2024-02-28T19:51:10;98173.75;;;3.77;100.00
44996;BME280;30729;49.486;10.792;2024-02-28T19:53:35;98160.06;;;3.70;100.00
44996;BME280;30729;49.486;10.792;2024-02-28T19:56:00;98161.25;;;3.69;100.00
44996;BME280;30729;49.486;10.792;2024-02-28T19:58:26;98166.78;;;3.69;100.00
44996;BME280;30729;49.486;10.792;2024-02-28T20:00:51;98156.53;;;3.69;100.00
44996;BME280;30729;49.486;10.792;2024-02-28T20:03:16;98148.63;;;3.71;100.00
44996;BME280;30729;49.486;10.792;2024-02-28T20:05:41;98157.31;;;3.70;100.00
44996;BME280;30729;49.486;10.792;2024-02-28T20:08:07;98156.09;;;3.71;100.00
44996;BME280;30729;49.486;10.792;2024-02-28T20:10:32;98152.94;;;3.72;100.00
44996;BME280;30729;49.486;10.792;2024-02-28T20:12:57;98160.81;;;3.74;100.00
44996;BME280;30729;49.486;10.792;2024-02-28T20:15:23;98163.09;;;3.83;100.00
44996;BME280;30729;49.486;10.792;2024-02-28T20:17:50;98162.31;;;3.82;100.00
44996;BME280;30729;49.486;10.792;2024-02-28T20:20:21;98154.09;;;3.75;100.00
44996;BME280;30729;49.486;10.792;2024-02-28T20:22:48;98155.25;;;3.77;100.00
44996;BME280;30729;49.486;10.792;2024-02-28T20:25:14;98148.44;;;3.89;100.00
44996;BME280;30729;49.486;10.792;2024-02-28T20:27:40;98152.91;;;3.76;100.00
44996;BME280;30729;49.486;10.792;2024-02-28T20:30:05;98151.66;;;3.84;100.00
44996;BME280;30729;49.486;10.792;2024-02-28T20:32:31;98143.81;;;3.83;100.00
44996;BME280;30729;49.486;10.792;2024-02-28T20:34:57;98153.28;;;3.78;100.00
44996;BME280;30729;49.486;10.792;2024-02-28T20:37:23;98147.78;;;3.78;100.00
44996;BME280;30729;49.486;10.792;2024-02-28T20:39:48;98154.06;;;3.78;100.00
44996;BME280;30729;49.486;10.792;2024-02-28T20:42:14;98151.94;;;3.93;100.00
44996;BME280;30729;49.486;10.792;2024-02-28T20:44:39;98147.34;;;3.83;100.00
44996;BME280;30729;49.486;10.792;2024-02-28T20:47:04;98151.69;;;3.81;100.00
44996;BME280;30729;49.486;10.792;2024-02-28T20:49:30;98147.06;;;3.70;100.00
44996;BME280;30729;49.486;10.792;2024-02-28T20:51:55;98147.97;;;3.57;100.00
44996;BME280;30729;49.486;10.792;2024-02-28T20:54:22;98138.53;;;3.58;100.00
44996;BME280;30729;49.486;10.792;2024-02-28T20:56:47;98140.06;;;3.59;100.00
44996;BME280;30729;49.486;10.792;2024-02-28T20:59:12;98140.41;;;3.64;100.00
44996;BME280;30729;49.486;10.792;2024-02-28T21:01:38;98135.25;;;3.70;100.00
44996;BME280;30729;49.486;10.792;2024-02-28T21:04:03;98136.00;;;3.74;100.00
44996;BME280;30729;49.486;10.792;2024-02-28T21:06:30;98146.19;;;3.77;100.00
44996;BME280;30729;49.486;10.792;2024-02-28T21:08:55;98147.38;;;3.76;100.00
44996;BME280;30729;49.486;10.792;2024-02-28T21:11:22;98135.56;;;3.79;100.00
44996;BME280;30729;49.486;10.792;2024-02-28T21:13:48;98133.53;;;3.87;100.00
44996;BME280;30729;49.486;10.792;2024-02-28T21:16:18;98131.91;;;3.89;100.00
44996;BME280;30729;49.486;10.792;2024-02-28T21:18:43;98132.72;;;3.86;100.00
44996;BME280;30729;49.486;10.792;2024-02-28T21:21:08;98135.16;;;3.81;100.00
44996;BME280;30729;49.486;10.792;2024-02-28T21:23:34;98133.72;;;3.69;100.00
44996;BME280;30729;49.486;10.792;2024-02-28T21:25:59;98138.97;;;3.52;100.00
44996;BME280;30729;49.486;10.792;2024-02-28T21:28:24;98131.47;;;3.57;100.00
44996;BME280;30729;49.486;10.792;2024-02-28T21:30:49;98137.75;;;3.57;100.00
44996;BME280;30729;49.486;10.792;2024-02-28T21:33:15;98120.75;;;3.66;100.00
44996;BME280;30729;49.486;10.792;2024-02-28T21:35:40;98122.41;;;3.56;100.00
44996;BME280;30729;49.486;10.792;2024-02-28T21:38:09;98130.00;;;3.41;100.00
44996;BME280;30729;49.486;10.792;2024-02-28T21:40:34;98123.72;;;3.41;100.00
44996;BME280;30729;49.486;10.792;2024-02-28T21:43:00;98116.63;;;3.43;100.00
44996;BME280;30729;49.486;10.792;2024-02-28T21:45:25;98119.69;;;3.52;100.00
44996;BME280;30729;49.486;10.792;2024-02-28T21:47:50;98117.28;;;3.54;100.00
44996;BME280;30729;49.486;10.792;2024-02-28T21:50:18;98115.69;;;3.61;100.00
44996;BME280;30729;49.486;10.792;2024-02-28T21:52:43;98122.81;;;3.54;100.00
44996;BME280;30729;49.486;10.792;2024-02-28T21:55:09;98114.38;;;3.72;100.00
44996;BME280;30729;49.486;10.792;2024-02-28T21:57:35;98119.31;;;3.88;100.00
44996;BME280;30729;49.486;10.792;2024-02-28T22:00:00;98122.00;;;3.95;100.00
44996;BME280;30729;49.486;10.792;2024-02-28T22:02:25;98113.69;;;3.99;100.00
44996;BME280;30729;49.486;10.792;2024-02-28T22:04:51;98121.63;;;3.93;100.00
44996;BME280;30729;49.486;10.792;2024-02-28T22:07:16;98120.06;;;3.92;100.00
44996;BME280;30729;49.486;10.792;2024-02-28T22:09:41;98116.28;;;3.79;100.00
44996;BME280;30729;49.486;10.792;2024-02-28T22:12:07;98118.78;;;3.63;100.00
44996;BME280;30729;49.486;10.792;2024-02-28T22:14:33;98114.09;;;3.60;100.00
44996;BME280;30729;49.486;10.792;2024-02-28T22:16:59;98116.50;;;3.54;100.00
44996;BME280;30729;49.486;10.792;2024-02-28T22:19:24;98125.63;;;3.47;100.00
44996;BME280;30729;49.486;10.792;2024-02-28T22:21:49;98119.81;;;3.38;100.00
44996;BME280;30729;49.486;10.792;2024-02-28T22:24:14;98126.19;;;3.28;100.00
44996;BME280;30729;49.486;10.792;2024-02-28T22:26:40;98133.09;;;2.98;100.00
44996;BME280;30729;49.486;10.792;2024-02-28T22:29:06;98137.13;;;2.83;100.00
44996;BME280;30729;49.486;10.792;2024-02-28T22:31:31;98132.09;;;2.71;100.00
44996;BME280;30729;49.486;10.792;2024-02-28T22:33:56;98140.00;;;2.62;100.00
44996;BME280;30729;49.486;10.792;2024-02-28T22:36:22;98138.00;;;2.69;100.00
44996;BME280;30729;49.486;10.792;2024-02-28T22:38:47;98139.88;;;2.83;100.00
44996;BME280;30729;49.486;10.792;2024-02-28T22:41:14;98133.59;;;2.86;100.00
44996;BME280;30729;49.486;10.792;2024-02-28T22:43:39;98130.84;;;2.86;100.00
44996;BME280;30729;49.486;10.792;2024-02-28T22:46:05;98125.03;;;2.70;100.00
44996;BME280;30729;49.486;10.792;2024-02-28T22:48:30;98122.28;;;2.70;100.00
44996;BME280;30729;49.486;10.792;2024-02-28T22:50:55;98122.56;;;2.90;100.00
44996;BME280;30729;49.486;10.792;2024-02-28T22:53:20;98115.78;;;3.01;100.00
44996;BME280;30729;49.486;10.792;2024-02-28T22:55:46;98114.53;;;3.10;100.00
44996;BME280;30729;49.486;10.792;2024-02-28T22:58:11;98115.28;;;3.14;100.00
44996;BME280;30729;49.486;10.792;2024-02-28T23:00:36;98109.91;;;2.99;100.00
44996;BME280;30729;49.486;10.792;2024-02-28T23:03:04;98120.97;;;2.89;100.00
44996;BME280;30729;49.486;10.792;2024-02-28T23:05:30;98114.75;;;2.81;100.00
44996;BME280;30729;49.486;10.792;2024-02-28T23:07:57;98107.75;;;2.69;100.00
44996;BME280;30729;49.486;10.792;2024-02-28T23:10:23;98098.28;;;2.74;100.00
